Terminal Aerodrome Forecast
Issued by NWS New Orleans/Baton Rouge, LA

Home | Current Version | Previous Version | Text Only | Print | Product List | Glossary On
Versions: 1 2 3 4 5 6 7 8 9 10 11 12 13 14 15 16 17 18 19 20 21 22 23 24
000
FTUS44 KLIX 182300 RRA
TAFNEW
TAF
KNEW 182340Z 1900/1924 12007KT P6SM BKN100
      TEMPO 1900/1904 3SM SHRA BKN020
     FM190400 12007KT P6SM BKN030
     FM191200 09008KT 4SM RA BR OVC015
      TEMPO 1914/1918 1SM SHRA BR OVC007
     FM191800 07010KT 3SM SHRA BKN015
      TEMPO 1918/1922 1SM SHRA BKN010=

USA.gov is the U.S. government's official web portal to all federal, state and local government web resources and services.